Nuuk Skibakke/Sisorarfiit

KL  EN  DA
ASIAQ
Weather Now GREENLAND SURVEY
Updated [WGT/WGST] Temperature [°C] Wind [m/s] Air pressure [hPa] Relative humidity [%] Precipitation [mm]
Present Wind chill Speed Max
30.11 17:00-8,6-18,510,3 ⇙14,595567n/a
30.11 16:00-8,0-17,39,1 ⇓11,995579n/a
30.11 15:00-8,1-17,710,0 ⇓12,695479n/a
30.11 14:00-8,2-17,59,1 ⇓11,495474n/a
30.11 13:00-7,4-15,87,7 ⇓9,895567n/a
30.11 12:00-7,8-15,86,7 ⇓9,095682n/a
30.11 11:00-7,6-15,06,0 ⇓7,695783n/a
30.11 10:00-7,1-13,24,2 ⇙7,595782n/a
30.11 09:00-7,4-13,74,4 ⇙6,395876n/a
30.11 08:00-6,5-12,74,5 ⇐6,595973n/a
30.11 07:00-6,0-11,94,3 ⇐6,596069n/a
30.11 06:00-5,7-11,34,1 ⇐6,396168n/a
30.11 05:00-6,2-12,04,1 ⇙6,396171n/a
30.11 04:00-5,0-9,83,2 ⇐5,696264n/a
30.11 03:00-4,6-9,23,2 ⇐4,896366n/a
30.11 02:00-4,4-9,33,5 ⇐5,396464n/a
30.11 01:00-4,1-6,11,3 ⇐2,696566n/a
30.11 00:00-3,4-6,82,3 ⇖5,596662n/a
29.11 23:00-3,5-6,41,9 ⇑4,496666n/a
29.11 22:00-3,4-8,44,0 ⇖9,496768n/a
29.11 21:00-3,6-9,55,1 ⇑10,396774n/a
29.11 20:00-3,6-9,95,7 ⇑9,596775n/a
29.11 19:00-3,7-10,26,1 ⇑11,696778n/a
29.11 18:00-3,7-10,36,2 ⇑12,096779n/a
29.11 17:00-3,7-10,25,9 ⇑11,396785n/a
Position: (64.19036111,-51.64752778)

[Back]